sensor_id;sensor_type;location;lat;lon;timestamp;pressure;altitude;pressure_sealevel;temperature;humidity
76694;BME280;65625;52.136;5.424;2022-12-16T00:01:16;101121.88;;;-2.58;93.29
76694;BME280;65625;52.136;5.424;2022-12-16T00:03:51;101122.81;;;-2.62;93.21
76694;BME280;65625;52.136;5.424;2022-12-16T00:06:22;101122.88;;;-2.65;93.46
76694;BME280;65625;52.136;5.424;2022-12-16T00:08:48;101130.84;;;-2.68;93.39
76694;BME280;65625;52.136;5.424;2022-12-16T00:11:17;101119.53;;;-2.74;93.10
76694;BME280;65625;52.136;5.424;2022-12-16T00:13:45;101124.88;;;-2.77;93.44
76694;BME280;65625;52.136;5.424;2022-12-16T00:16:15;101122.28;;;-2.82;93.39
76694;BME280;65625;52.136;5.424;2022-12-16T00:18:43;101125.88;;;-2.86;93.43
76694;BME280;65625;52.136;5.424;2022-12-16T00:21:10;101125.94;;;-2.90;93.42
76694;BME280;65625;52.136;5.424;2022-12-16T00:23:37;101123.31;;;-2.92;93.42
76694;BME280;65625;52.136;5.424;2022-12-16T00:26:10;101126.97;;;-2.97;93.12
76694;BME280;65625;52.136;5.424;2022-12-16T00:28:38;101130.47;;;-2.98;93.71
76694;BME280;65625;52.136;5.424;2022-12-16T00:31:05;101124.38;;;-3.02;93.23
76694;BME280;65625;52.136;5.424;2022-12-16T00:33:31;101126.19;;;-3.05;93.15
76694;BME280;65625;52.136;5.424;2022-12-16T00:35:59;101128.88;;;-3.08;93.08
76694;BME280;65625;52.136;5.424;2022-12-16T00:38:25;101136.84;;;-3.11;93.40
76694;BME280;65625;52.136;5.424;2022-12-16T00:40:52;101136.00;;;-3.13;93.38
76694;BME280;65625;52.136;5.424;2022-12-16T00:43:19;101137.78;;;-3.15;93.30
76694;BME280;65625;52.136;5.424;2022-12-16T00:45:46;101137.84;;;-3.18;93.55
76694;BME280;65625;52.136;5.424;2022-12-16T00:48:13;101136.09;;;-3.19;93.49
76694;BME280;65625;52.136;5.424;2022-12-16T00:50:40;101134.34;;;-3.20;93.85
76694;BME280;65625;52.136;5.424;2022-12-16T00:53:06;101139.63;;;-3.20;93.28
76694;BME280;65625;52.136;5.424;2022-12-16T00:55:33;101137.84;;;-3.18;93.35
76694;BME280;65625;52.136;5.424;2022-12-16T00:58:00;101138.66;;;-3.15;93.56
76694;BME280;65625;52.136;5.424;2022-12-16T01:00:26;101148.19;;;-3.05;93.53
76694;BME280;65625;52.136;5.424;2022-12-16T01:02:53;101157.78;;;-2.99;93.40
76694;BME280;65625;52.136;5.424;2022-12-16T01:05:21;101145.53;;;-3.05;93.65
76694;BME280;65625;52.136;5.424;2022-12-16T01:07:53;101150.91;;;-3.09;93.71
76694;BME280;65625;52.136;5.424;2022-12-16T01:10:21;101157.84;;;-3.05;93.88
76694;BME280;65625;52.136;5.424;2022-12-16T01:12:48;101165.72;;;-2.99;93.78
76694;BME280;65625;52.136;5.424;2022-12-16T01:15:16;101170.84;;;-2.92;94.02
76694;BME280;65625;52.136;5.424;2022-12-16T01:17:43;101171.59;;;-2.84;93.81
76694;BME280;65625;52.136;5.424;2022-12-16T01:20:10;101176.72;;;-2.73;93.54
76694;BME280;65625;52.136;5.424;2022-12-16T01:22:37;101170.44;;;-2.66;93.44
76694;BME280;65625;52.136;5.424;2022-12-16T01:25:04;101175.63;;;-2.60;93.72
76694;BME280;65625;52.136;5.424;2022-12-16T01:27:30;101181.75;;;-2.58;93.46
76694;BME280;65625;52.136;5.424;2022-12-16T01:29:57;101186.94;;;-2.50;93.54
76694;BME280;65625;52.136;5.424;2022-12-16T01:32:23;101185.91;;;-2.43;93.71
76694;BME280;65625;52.136;5.424;2022-12-16T01:34:52;101193.72;;;-2.36;93.53
76694;BME280;65625;52.136;5.424;2022-12-16T01:37:22;101192.75;;;-2.32;93.67
76694;BME280;65625;52.136;5.424;2022-12-16T01:39:49;101187.34;;;-2.24;93.71
76694;BME280;65625;52.136;5.424;2022-12-16T01:42:19;101195.16;;;-2.20;93.67
76694;BME280;65625;52.136;5.424;2022-12-16T01:44:48;101201.25;;;-2.15;93.49
76694;BME280;65625;52.136;5.424;2022-12-16T01:47:24;101202.03;;;-2.10;93.51
76694;BME280;65625;52.136;5.424;2022-12-16T01:50:01;101204.63;;;-2.07;93.34
76694;BME280;65625;52.136;5.424;2022-12-16T01:52:31;101214.19;;;-2.00;93.68
76694;BME280;65625;52.136;5.424;2022-12-16T01:55:08;101207.13;;;-1.99;93.59
76694;BME280;65625;52.136;5.424;2022-12-16T01:57:46;101206.19;;;-1.95;93.57
76694;BME280;65625;52.136;5.424;2022-12-16T02:00:14;101212.25;;;-1.89;93.27
76694;BME280;65625;52.136;5.424;2022-12-16T02:02:44;101209.44;;;-1.81;93.82
76694;BME280;65625;52.136;5.424;2022-12-16T02:05:15;101204.78;;;-1.70;93.90
76694;BME280;65625;52.136;5.424;2022-12-16T02:13:19;101209.03;;;-1.19;94.91
76694;BME280;65625;52.136;5.424;2022-12-16T02:18:59;101201.31;;;-0.91;95.63
76694;BME280;65625;52.136;5.424;2022-12-16T02:21:54;101209.97;;;-0.82;95.60
76694;BME280;65625;52.136;5.424;2022-12-16T02:24:42;101214.06;;;-0.69;95.59
76694;BME280;65625;52.136;5.424;2022-12-16T02:27:26;101220.91;;;-0.60;95.90
76694;BME280;65625;52.136;5.424;2022-12-16T02:30:34;101222.34;;;-0.47;95.90
76694;BME280;65625;52.136;5.424;2022-12-16T02:40:55;101236.75;;;-0.22;96.83
76694;BME280;65625;52.136;5.424;2022-12-16T02:43:34;101237.56;;;-0.19;96.43
76694;BME280;65625;52.136;5.424;2022-12-16T02:46:08;101244.59;;;-0.18;96.68
76694;BME280;65625;52.136;5.424;2022-12-16T02:48:35;101241.94;;;-0.18;96.25
76694;BME280;65625;52.136;5.424;2022-12-16T02:51:01;101251.66;;;-0.18;96.70
76694;BME280;65625;52.136;5.424;2022-12-16T02:53:30;101245.38;;;-0.14;96.79
76694;BME280;65625;52.136;5.424;2022-12-16T02:59:16;101250.59;;;-0.11;97.07
76694;BME280;65625;52.136;5.424;2022-12-16T03:01:58;101251.59;;;-0.15;96.34
76694;BME280;65625;52.136;5.424;2022-12-16T03:06:56;101260.53;;;-0.19;96.47
76694;BME280;65625;52.136;5.424;2022-12-16T03:09:28;101264.13;;;-0.22;96.44
76694;BME280;65625;52.136;5.424;2022-12-16T03:11:58;101273.00;;;-0.23;96.20
76694;BME280;65625;52.136;5.424;2022-12-16T03:14:28;101276.56;;;-0.24;96.10
76694;BME280;65625;52.136;5.424;2022-12-16T03:16:56;101278.34;;;-0.24;96.31
76694;BME280;65625;52.136;5.424;2022-12-16T03:19:25;101289.84;;;-0.24;96.30
76694;BME280;65625;52.136;5.424;2022-12-16T03:22:02;101281.00;;;-0.24;96.36
76694;BME280;65625;52.136;5.424;2022-12-16T03:24:30;101297.75;;;-0.22;96.28
76694;BME280;65625;52.136;5.424;2022-12-16T03:27:09;101301.25;;;-0.22;96.36
76694;BME280;65625;52.136;5.424;2022-12-16T03:30:03;101305.75;;;-0.24;96.17
76694;BME280;65625;52.136;5.424;2022-12-16T03:32:37;101303.97;;;-0.25;96.42
76694;BME280;65625;52.136;5.424;2022-12-16T03:35:14;101307.53;;;-0.24;96.45
76694;BME280;65625;52.136;5.424;2022-12-16T03:37:47;101307.53;;;-0.24;96.38
76694;BME280;65625;52.136;5.424;2022-12-16T03:40:16;101313.69;;;-0.24;96.35
76694;BME280;65625;52.136;5.424;2022-12-16T03:42:43;101311.00;;;-0.22;96.35
76694;BME280;65625;52.136;5.424;2022-12-16T03:45:15;101319.81;;;-0.22;96.38
76694;BME280;65625;52.136;5.424;2022-12-16T03:47:48;101322.47;;;-0.22;95.96
76694;BME280;65625;52.136;5.424;2022-12-16T03:50:18;101330.44;;;-0.22;96.28
76694;BME280;65625;52.136;5.424;2022-12-16T03:52:44;101339.25;;;-0.21;96.01
76694;BME280;65625;52.136;5.424;2022-12-16T03:55:11;101338.38;;;-0.20;95.96
76694;BME280;65625;52.136;5.424;2022-12-16T03:57:37;101334.81;;;-0.19;96.41
76694;BME280;65625;52.136;5.424;2022-12-16T04:00:05;101342.75;;;-0.19;96.17
76694;BME280;65625;52.136;5.424;2022-12-16T04:02:37;101341.00;;;-0.19;96.14
76694;BME280;65625;52.136;5.424;2022-12-16T04:05:04;101343.59;;;-0.17;96.16
76694;BME280;65625;52.136;5.424;2022-12-16T04:07:31;101340.91;;;-0.16;95.99
76694;BME280;65625;52.136;5.424;2022-12-16T04:09:58;101333.00;;;-0.17;96.41
76694;BME280;65625;52.136;5.424;2022-12-16T04:12:25;101336.53;;;-0.18;96.39
76694;BME280;65625;52.136;5.424;2022-12-16T04:15:10;101342.72;;;-0.18;96.01
76694;BME280;65625;52.136;5.424;2022-12-16T04:17:56;101348.09;;;-0.21;96.04
76694;BME280;65625;52.136;5.424;2022-12-16T04:20:44;101347.28;;;-0.24;95.62
76694;BME280;65625;52.136;5.424;2022-12-16T04:23:30;101341.19;;;-0.28;96.00
76694;BME280;65625;52.136;5.424;2022-12-16T04:26:16;101350.09;;;-0.30;95.93
76694;BME280;65625;52.136;5.424;2022-12-16T04:28:43;101350.19;;;-0.35;95.54
76694;BME280;65625;52.136;5.424;2022-12-16T04:31:09;101357.34;;;-0.38;95.82
76694;BME280;65625;52.136;5.424;2022-12-16T04:33:36;101356.56;;;-0.43;95.70
76694;BME280;65625;52.136;5.424;2022-12-16T04:36:21;101368.13;;;-0.46;96.03
76694;BME280;65625;52.136;5.424;2022-12-16T04:39:06;101362.06;;;-0.51;95.76
76694;BME280;65625;52.136;5.424;2022-12-16T04:41:53;101372.72;;;-0.54;95.49
76694;BME280;65625;52.136;5.424;2022-12-16T04:44:38;101367.50;;;-0.58;95.63
76694;BME280;65625;52.136;5.424;2022-12-16T04:47:23;101374.59;;;-0.59;95.64
76694;BME280;65625;52.136;5.424;2022-12-16T04:50:09;101379.91;;;-0.59;95.53
76694;BME280;65625;52.136;5.424;2022-12-16T04:52:54;101383.44;;;-0.60;95.62
76694;BME280;65625;52.136;5.424;2022-12-16T04:55:39;101384.28;;;-0.58;95.26
76694;BME280;65625;52.136;5.424;2022-12-16T04:58:29;101383.41;;;-0.58;95.47
76694;BME280;65625;52.136;5.424;2022-12-16T05:01:14;101381.78;;;-0.64;95.70
76694;BME280;65625;52.136;5.424;2022-12-16T05:03:59;101381.84;;;-0.68;95.56
76694;BME280;65625;52.136;5.424;2022-12-16T05:06:44;101387.25;;;-0.73;95.51
76694;BME280;65625;52.136;5.424;2022-12-16T05:09:29;101390.88;;;-0.75;95.57
76694;BME280;65625;52.136;5.424;2022-12-16T05:12:14;101390.91;;;-0.78;95.62
76694;BME280;65625;52.136;5.424;2022-12-16T05:14:59;101386.63;;;-0.84;95.55
76694;BME280;65625;52.136;5.424;2022-12-16T05:17:44;101384.97;;;-0.89;95.40
76694;BME280;65625;52.136;5.424;2022-12-16T05:20:29;101385.13;;;-0.97;95.55
76694;BME280;65625;52.136;5.424;2022-12-16T05:23:14;101387.06;;;-1.06;95.59
76694;BME280;65625;52.136;5.424;2022-12-16T05:26:00;101393.38;;;-1.12;95.86
76694;BME280;65625;52.136;5.424;2022-12-16T05:28:45;101390.09;;;-1.26;95.59
76694;BME280;65625;52.136;5.424;2022-12-16T05:31:30;101400.00;;;-1.37;95.96
76694;BME280;65625;52.136;5.424;2022-12-16T05:34:15;101386.91;;;-1.45;95.53
76694;BME280;65625;52.136;5.424;2022-12-16T05:37:00;101395.00;;;-1.55;95.73
76694;BME280;65625;52.136;5.424;2022-12-16T05:39:45;101396.06;;;-1.64;95.95
76694;BME280;65625;52.136;5.424;2022-12-16T05:42:30;101401.56;;;-1.76;95.69
76694;BME280;65625;52.136;5.424;2022-12-16T05:45:15;101405.22;;;-1.84;95.81
76694;BME280;65625;52.136;5.424;2022-12-16T05:48:00;101404.38;;;-1.86;95.65
76694;BME280;65625;52.136;5.424;2022-12-16T05:50:45;101406.25;;;-1.94;95.94
76694;BME280;65625;52.136;5.424;2022-12-16T05:53:30;101418.72;;;-2.01;95.78
76694;BME280;65625;52.136;5.424;2022-12-16T05:56:15;101417.88;;;-2.04;95.86
76694;BME280;65625;52.136;5.424;2022-12-16T05:59:00;101418.84;;;-2.11;96.00
76694;BME280;65625;52.136;5.424;2022-12-16T06:01:45;101419.88;;;-2.20;96.09
76694;BME280;65625;52.136;5.424;2022-12-16T06:04:41;101429.59;;;-2.23;95.70
76694;BME280;65625;52.136;5.424;2022-12-16T06:07:26;101424.44;;;-2.31;96.06
76694;BME280;65625;52.136;5.424;2022-12-16T06:10:11;101425.34;;;-2.33;96.02
76694;BME280;65625;52.136;5.424;2022-12-16T06:12:56;101427.16;;;-2.37;96.14
76694;BME280;65625;52.136;5.424;2022-12-16T06:15:41;101435.16;;;-2.43;96.19
76694;BME280;65625;52.136;5.424;2022-12-16T06:18:33;101437.91;;;-2.49;96.09
76694;BME280;65625;52.136;5.424;2022-12-16T06:21:19;101445.00;;;-2.52;96.29
76694;BME280;65625;52.136;5.424;2022-12-16T06:24:04;101447.69;;;-2.55;96.29
76694;BME280;65625;52.136;5.424;2022-12-16T06:26:49;101453.00;;;-2.60;95.90
76694;BME280;65625;52.136;5.424;2022-12-16T06:29:34;101446.88;;;-2.65;95.95
76694;BME280;65625;52.136;5.424;2022-12-16T06:32:19;101456.66;;;-2.72;95.98
76694;BME280;65625;52.136;5.424;2022-12-16T06:35:04;101451.44;;;-2.76;96.00
76694;BME280;65625;52.136;5.424;2022-12-16T06:37:49;101460.25;;;-2.79;96.27
76694;BME280;65625;52.136;5.424;2022-12-16T06:40:34;101456.78;;;-2.84;96.25
76694;BME280;65625;52.136;5.424;2022-12-16T06:43:20;101461.25;;;-2.87;96.10
76694;BME280;65625;52.136;5.424;2022-12-16T06:46:05;101460.41;;;-2.91;96.28
76694;BME280;65625;52.136;5.424;2022-12-16T06:48:50;101464.84;;;-2.93;95.97
76694;BME280;65625;52.136;5.424;2022-12-16T06:51:35;101468.38;;;-2.97;96.44
76694;BME280;65625;52.136;5.424;2022-12-16T06:54:20;101478.97;;;-2.98;96.47
76694;BME280;65625;52.136;5.424;2022-12-16T06:57:05;101480.78;;;-3.03;96.24
76694;BME280;65625;52.136;5.424;2022-12-16T06:59:50;101480.84;;;-3.09;95.80
76694;BME280;65625;52.136;5.424;2022-12-16T07:02:35;101484.41;;;-3.15;95.67
76694;BME280;65625;52.136;5.424;2022-12-16T07:05:20;101490.59;;;-3.17;96.19
76694;BME280;65625;52.136;5.424;2022-12-16T07:08:05;101491.50;;;-3.21;95.75
76694;BME280;65625;52.136;5.424;2022-12-16T07:10:50;101496.81;;;-3.24;96.43
76694;BME280;65625;52.136;5.424;2022-12-16T07:13:42;101509.13;;;-3.23;95.75
76694;BME280;65625;52.136;5.424;2022-12-16T07:16:28;101514.47;;;-3.29;95.79
76694;BME280;65625;52.136;5.424;2022-12-16T07:19:13;101521.53;;;-3.34;96.00
76694;BME280;65625;52.136;5.424;2022-12-16T07:21:58;101518.91;;;-3.36;96.22
76694;BME280;65625;52.136;5.424;2022-12-16T07:24:43;101519.81;;;-3.38;95.91
76694;BME280;65625;52.136;5.424;2022-12-16T07:27:28;101517.16;;;-3.37;96.06
76694;BME280;65625;52.136;5.424;2022-12-16T07:30:13;101523.31;;;-3.36;95.53
76694;BME280;65625;52.136;5.424;2022-12-16T07:32:58;101525.97;;;-3.39;95.74
76694;BME280;65625;52.136;5.424;2022-12-16T07:35:43;101528.63;;;-3.41;96.09
76694;BME280;65625;52.136;5.424;2022-12-16T07:38:28;101535.72;;;-3.46;96.08
76694;BME280;65625;52.136;5.424;2022-12-16T07:41:16;101539.19;;;-3.45;95.94
76694;BME280;65625;52.136;5.424;2022-12-16T07:44:02;101547.13;;;-3.47;96.18
76694;BME280;65625;52.136;5.424;2022-12-16T07:46:47;101542.75;;;-3.48;95.60
76694;BME280;65625;52.136;5.424;2022-12-16T07:49:33;101541.00;;;-3.47;96.04
76694;BME280;65625;52.136;5.424;2022-12-16T07:52:21;101548.91;;;-3.46;96.07
76694;BME280;65625;52.136;5.424;2022-12-16T07:55:06;101543.63;;;-3.46;95.81
76694;BME280;65625;52.136;5.424;2022-12-16T07:57:52;101555.94;;;-3.46;96.04
76694;BME280;65625;52.136;5.424;2022-12-16T08:00:37;101562.13;;;-3.49;95.72
76694;BME280;65625;52.136;5.424;2022-12-16T08:03:22;101560.31;;;-3.48;95.98
76694;BME280;65625;52.136;5.424;2022-12-16T08:06:21;101571.75;;;-3.48;95.78
76694;BME280;65625;52.136;5.424;2022-12-16T08:09:07;101573.53;;;-3.48;95.71
76694;BME280;65625;52.136;5.424;2022-12-16T08:11:52;101591.97;;;-3.44;95.87
76694;BME280;65625;52.136;5.424;2022-12-16T08:14:37;101581.44;;;-3.44;96.06
76694;BME280;65625;52.136;5.424;2022-12-16T08:17:21;101597.25;;;-3.42;95.51
76694;BME280;65625;52.136;5.424;2022-12-16T08:20:07;101597.22;;;-3.41;94.96
76694;BME280;65625;52.136;5.424;2022-12-16T08:22:52;101604.19;;;-3.35;95.50
76694;BME280;65625;52.136;5.424;2022-12-16T08:25:37;101606.84;;;-3.32;95.45
76694;BME280;65625;52.136;5.424;2022-12-16T08:28:22;101603.31;;;-3.31;95.27
76694;BME280;65625;52.136;5.424;2022-12-16T08:31:07;101598.91;;;-3.29;95.52
76694;BME280;65625;52.136;5.424;2022-12-16T08:33:52;101613.78;;;-3.18;95.51
76694;BME280;65625;52.136;5.424;2022-12-16T08:36:37;101611.88;;;-3.04;95.18
76694;BME280;65625;52.136;5.424;2022-12-16T08:39:22;101616.22;;;-2.92;94.92
76694;BME280;65625;52.136;5.424;2022-12-16T08:42:07;101618.81;;;-2.86;94.99
76694;BME280;65625;52.136;5.424;2022-12-16T08:44:52;101617.91;;;-2.82;94.41
76694;BME280;65625;52.136;5.424;2022-12-16T08:47:37;101615.25;;;-2.81;94.29
76694;BME280;65625;52.136;5.424;2022-12-16T08:50:22;101629.25;;;-2.73;94.38
76694;BME280;65625;52.136;5.424;2022-12-16T08:53:07;101624.72;;;-2.57;94.52
76694;BME280;65625;52.136;5.424;2022-12-16T08:55:53;101634.22;;;-2.39;94.35
76694;BME280;65625;52.136;5.424;2022-12-16T08:58:38;101627.00;;;-2.27;94.48
76694;BME280;65625;52.136;5.424;2022-12-16T09:01:23;101638.28;;;-2.10;94.46
76694;BME280;65625;52.136;5.424;2022-12-16T09:04:08;101638.97;;;-1.93;94.06
76694;BME280;65625;52.136;5.424;2022-12-16T09:06:54;101641.53;;;-1.87;93.81
76694;BME280;65625;52.136;5.424;2022-12-16T09:09:39;101633.59;;;-1.87;93.81
76694;BME280;65625;52.136;5.424;2022-12-16T09:12:24;101633.56;;;-1.81;93.81
76694;BME280;65625;52.136;5.424;2022-12-16T09:15:09;101645.69;;;-1.65;94.20
76694;BME280;65625;52.136;5.424;2022-12-16T09:17:55;101645.53;;;-1.54;94.24
76694;BME280;65625;52.136;5.424;2022-12-16T09:20:40;101650.50;;;-1.28;93.74
76694;BME280;65625;52.136;5.424;2022-12-16T09:23:25;101645.69;;;-1.02;93.98
76694;BME280;65625;52.136;5.424;2022-12-16T09:26:10;101649.56;;;-0.71;93.47
76694;BME280;65625;52.136;5.424;2022-12-16T09:28:56;101650.06;;;-0.48;93.43
76694;BME280;65625;52.136;5.424;2022-12-16T09:31:41;101652.41;;;-0.30;92.94
76694;BME280;65625;52.136;5.424;2022-12-16T09:34:26;101656.47;;;-0.11;92.73
76694;BME280;65625;52.136;5.424;2022-12-16T09:37:12;101656.03;;;0.10;92.63
76694;BME280;65625;52.136;5.424;2022-12-16T09:39:57;101658.97;;;1.18;90.84
76694;BME280;65625;52.136;5.424;2022-12-16T09:46:15;101669.09;;;0.21;90.53
76694;BME280;65625;52.136;5.424;2022-12-16T09:52:30;101656.53;;;5.42;81.08
76694;BME280;65625;52.136;5.424;2022-12-16T09:55:28;101665.41;;;5.21;79.07
76694;BME280;65625;52.136;5.424;2022-12-16T09:58:16;101671.38;;;5.28;79.75
76694;BME280;65625;52.136;5.424;2022-12-16T10:01:02;101668.34;;;6.97;76.51
76694;BME280;65625;52.136;5.424;2022-12-16T10:03:47;101659.78;;;6.89;71.04
76694;BME280;65625;52.136;5.424;2022-12-16T10:06:49;101674.34;;;4.98;74.63
76694;BME280;65625;52.136;5.424;2022-12-16T10:12:58;101675.13;;;8.78;66.17
76694;BME280;65625;52.136;5.424;2022-12-16T10:21:52;101681.16;;;6.13;69.11
76694;BME280;65625;52.136;5.424;2022-12-16T10:25:02;101681.97;;;6.35;68.77
76694;BME280;65625;52.136;5.424;2022-12-16T10:27:54;101675.69;;;8.35;65.61
76694;BME280;65625;52.136;5.424;2022-12-16T10:30:42;101679.34;;;8.99;61.14
76694;BME280;65625;52.136;5.424;2022-12-16T10:33:28;101685.69;;;7.09;65.85
76694;BME280;65625;52.136;5.424;2022-12-16T10:36:20;101681.00;;;5.75;68.94
76694;BME280;65625;52.136;5.424;2022-12-16T10:39:24;101696.34;;;4.36;72.59
76694;BME280;65625;52.136;5.424;2022-12-16T10:42:21;101700.97;;;3.81;75.11
76694;BME280;65625;52.136;5.424;2022-12-16T10:45:23;101706.25;;;3.57;76.21
76694;BME280;65625;52.136;5.424;2022-12-16T10:48:09;101700.03;;;3.82;76.92
76694;BME280;65625;52.136;5.424;2022-12-16T10:50:58;101697.66;;;4.00;76.68
76694;BME280;65625;52.136;5.424;2022-12-16T10:53:48;101692.75;;;3.61;77.91
76694;BME280;65625;52.136;5.424;2022-12-16T10:56:39;101696.56;;;3.27;79.12
76694;BME280;65625;52.136;5.424;2022-12-16T10:59:38;101700.75;;;3.06;79.84
76694;BME280;65625;52.136;5.424;2022-12-16T11:02:27;101692.34;;;2.91;79.97
76694;BME280;65625;52.136;5.424;2022-12-16T11:05:31;101696.78;;;2.92;80.62
76694;BME280;65625;52.136;5.424;2022-12-16T11:08:32;101693.44;;;3.13;80.93
76694;BME280;65625;52.136;5.424;2022-12-16T11:11:24;101691.69;;;3.67;79.94
76694;BME280;65625;52.136;5.424;2022-12-16T11:14:28;101707.78;;;3.64;79.95
76694;BME280;65625;52.136;5.424;2022-12-16T11:17:33;101710.22;;;3.16;80.14
76694;BME280;65625;52.136;5.424;2022-12-16T11:20:21;101705.53;;;2.97;81.72
76694;BME280;65625;52.136;5.424;2022-12-16T11:23:20;101709.50;;;2.82;81.92
76694;BME280;65625;52.136;5.424;2022-12-16T11:29:16;101714.47;;;2.65;82.48
76694;BME280;65625;52.136;5.424;2022-12-16T11:32:12;101722.72;;;2.56;83.12
76694;BME280;65625;52.136;5.424;2022-12-16T11:35:04;101720.38;;;2.44;83.30
76694;BME280;65625;52.136;5.424;2022-12-16T11:37:55;101727.56;;;2.42;83.34
76694;BME280;65625;52.136;5.424;2022-12-16T11:40:42;101734.78;;;2.38;84.44
76694;BME280;65625;52.136;5.424;2022-12-16T11:43:28;101728.56;;;2.38;84.52
76694;BME280;65625;52.136;5.424;2022-12-16T11:46:23;101729.50;;;2.37;84.91
76694;BME280;65625;52.136;5.424;2022-12-16T11:49:29;101733.06;;;2.36;84.77
76694;BME280;65625;52.136;5.424;2022-12-16T11:52:17;101732.31;;;2.31;85.05
76694;BME280;65625;52.136;5.424;2022-12-16T11:55:15;101734.09;;;2.30;85.35
76694;BME280;65625;52.136;5.424;2022-12-16T11:58:35;101734.03;;;2.33;85.09
76694;BME280;65625;52.136;5.424;2022-12-16T12:01:32;101725.16;;;2.33;84.85
76694;BME280;65625;52.136;5.424;2022-12-16T12:04:21;101739.34;;;2.33;85.73
76694;BME280;65625;52.136;5.424;2022-12-16T12:10:40;101736.66;;;2.35;85.48
76694;BME280;65625;52.136;5.424;2022-12-16T12:13:43;101733.66;;;2.47;85.82
76694;BME280;65625;52.136;5.424;2022-12-16T12:19:33;101734.06;;;2.63;85.95
76694;BME280;65625;52.136;5.424;2022-12-16T12:22:34;101736.56;;;2.69;85.31
76694;BME280;65625;52.136;5.424;2022-12-16T12:37:33;101746.66;;;2.57;85.23
76694;BME280;65625;52.136;5.424;2022-12-16T12:41:35;101745.00;;;2.53;85.74
76694;BME280;65625;52.136;5.424;2022-12-16T12:44:00;101752.31;;;2.45;85.82
76694;BME280;65625;52.136;5.424;2022-12-16T12:46:56;101757.88;;;2.38;85.99
76694;BME280;65625;52.136;5.424;2022-12-16T12:50:05;101768.56;;;2.36;85.87
76694;BME280;65625;52.136;5.424;2022-12-16T12:53:06;101760.66;;;2.33;86.30
76694;BME280;65625;52.136;5.424;2022-12-16T12:58:53;101751.75;;;2.34;86.22
76694;BME280;65625;52.136;5.424;2022-12-16T13:01:41;101758.03;;;2.32;86.46
76694;BME280;65625;52.136;5.424;2022-12-16T13:04:28;101758.00;;;2.33;85.96
76694;BME280;65625;52.136;5.424;2022-12-16T13:07:14;101773.88;;;2.36;86.12
76694;BME280;65625;52.136;5.424;2022-12-16T13:16:03;101773.97;;;2.33;86.51
76694;BME280;65625;52.136;5.424;2022-12-16T13:22:32;101779.34;;;2.32;86.27
76694;BME280;65625;52.136;5.424;2022-12-16T13:25:48;101776.69;;;2.30;85.91
76694;BME280;65625;52.136;5.424;2022-12-16T13:28:37;101776.75;;;2.29;86.61
76694;BME280;65625;52.136;5.424;2022-12-16T13:31:24;101781.13;;;2.31;86.52
76694;BME280;65625;52.136;5.424;2022-12-16T13:37:01;101780.16;;;2.34;86.40
76694;BME280;65625;52.136;5.424;2022-12-16T13:40:38;101787.25;;;2.35;86.40
76694;BME280;65625;52.136;5.424;2022-12-16T13:43:43;101788.09;;;2.37;86.71
76694;BME280;65625;52.136;5.424;2022-12-16T13:47:28;101790.75;;;2.37;86.52
76694;BME280;65625;52.136;5.424;2022-12-16T13:50:44;101795.28;;;2.33;86.59
76694;BME280;65625;52.136;5.424;2022-12-16T13:53:50;101806.00;;;2.30;86.80
76694;BME280;65625;52.136;5.424;2022-12-16T13:56:43;101802.44;;;2.31;86.75
76694;BME280;65625;52.136;5.424;2022-12-16T13:59:31;101799.81;;;2.30;87.47
76694;BME280;65625;52.136;5.424;2022-12-16T14:02:27;101805.16;;;2.30;86.49
76694;BME280;65625;52.136;5.424;2022-12-16T14:05:27;101811.63;;;2.20;87.32
76694;BME280;65625;52.136;5.424;2022-12-16T14:08:16;101815.34;;;2.13;87.06
76694;BME280;65625;52.136;5.424;2022-12-16T14:11:13;101816.38;;;2.07;87.93
76694;BME280;65625;52.136;5.424;2022-12-16T14:14:02;101817.38;;;2.03;87.09
76694;BME280;65625;52.136;5.424;2022-12-16T14:16:53;101828.91;;;2.02;87.82
76694;BME280;65625;52.136;5.424;2022-12-16T14:23:55;101838.63;;;2.05;88.56
76694;BME280;65625;52.136;5.424;2022-12-16T14:26:34;101840.38;;;2.06;88.09
76694;BME280;65625;52.136;5.424;2022-12-16T14:29:30;101843.09;;;2.03;87.99
76694;BME280;65625;52.136;5.424;2022-12-16T14:35:22;101847.84;;;1.92;88.72
76694;BME280;65625;52.136;5.424;2022-12-16T14:38:19;101854.09;;;1.89;88.72
76694;BME280;65625;52.136;5.424;2022-12-16T14:41:09;101855.94;;;1.86;89.19
76694;BME280;65625;52.136;5.424;2022-12-16T14:43:54;101868.44;;;1.82;89.29
76694;BME280;65625;52.136;5.424;2022-12-16T14:46:39;101873.84;;;1.79;88.85
76694;BME280;65625;52.136;5.424;2022-12-16T14:49:27;101878.31;;;1.77;88.96
76694;BME280;65625;52.136;5.424;2022-12-16T14:52:25;101884.56;;;1.76;89.00
76694;BME280;65625;52.136;5.424;2022-12-16T14:55:16;101889.88;;;1.76;89.61
76694;BME280;65625;52.136;5.424;2022-12-16T14:58:07;101895.25;;;1.75;89.60
76694;BME280;65625;52.136;5.424;2022-12-16T15:00:54;101897.94;;;1.73;89.38
76694;BME280;65625;52.136;5.424;2022-12-16T15:03:46;101898.06;;;1.67;89.02
76694;BME280;65625;52.136;5.424;2022-12-16T15:06:41;101904.38;;;1.63;89.43
76694;BME280;65625;52.136;5.424;2022-12-16T15:09:40;101916.00;;;1.58;89.43
76694;BME280;65625;52.136;5.424;2022-12-16T15:12:28;101915.19;;;1.54;89.08
76694;BME280;65625;52.136;5.424;2022-12-16T15:15:23;101921.53;;;1.47;89.34
76694;BME280;65625;52.136;5.424;2022-12-16T15:18:17;101917.22;;;1.43;89.42
76694;BME280;65625;52.136;5.424;2022-12-16T15:21:05;101919.25;;;1.30;88.96
76694;BME280;65625;52.136;5.424;2022-12-16T15:23:51;101925.69;;;1.19;89.28
76694;BME280;65625;52.136;5.424;2022-12-16T15:26:36;101926.72;;;1.10;89.17
76694;BME280;65625;52.136;5.424;2022-12-16T15:29:35;101935.81;;;0.99;90.13
76694;BME280;65625;52.136;5.424;2022-12-16T15:35:30;101939.75;;;0.78;90.53
76694;BME280;65625;52.136;5.424;2022-12-16T15:38:48;101951.41;;;0.71;90.30
76694;BME280;65625;52.136;5.424;2022-12-16T15:41:35;101944.44;;;0.63;90.29
76694;BME280;65625;52.136;5.424;2022-12-16T15:44:24;101948.22;;;0.50;90.89
76694;BME280;65625;52.136;5.424;2022-12-16T15:47:28;101954.53;;;0.43;90.93